Time;durP1;ratioP1;P1;durP2;ratioP2;P2;SDS_P1;SDS_P2;PMS_P1;PMS_P2;Temp;Humidity;BMP_temperature;BMP_pressure;BME280_temperature;BME280_humidity;BME280_pressure;Samples;Min_cycle;Max_cycle;Signal;HPM_P1;HPM_P2
2021/03/19 00:00:00;;;;;;;1999.90;999.90;;;5.10;99.90;;;;;;5033245;28;20947;-70
2021/03/19 00:02:26;;;;;;;1999.90;999.90;;;5.20;99.90;;;;;;5033140;28;20478;-70
2021/03/19 00:04:51;;;;;;;1999.90;999.90;;;5.20;99.90;;;;;;5032712;28;20180;-70
2021/03/19 00:07:17;;;;;;;1999.90;999.90;;;5.20;99.90;;;;;;5033157;28;20176;-70
2021/03/19 00:09:43;;;;;;;1999.90;999.90;;;5.00;99.90;;;;;;5032987;28;20789;-70
2021/03/19 00:12:09;;;;;;;1999.90;999.90;;;5.10;99.90;;;;;;5033020;28;20267;-70
2021/03/19 00:14:35;;;;;;;1999.90;999.90;;;5.10;99.90;;;;;;5032785;28;21042;-70
2021/03/19 00:17:00;;;;;;;1999.90;999.90;;;5.10;99.90;;;;;;5032633;28;20156;-70
2021/03/19 00:19:26;;;;;;;1999.90;999.90;;;5.10;99.90;;;;;;5032922;28;20168;-70
2021/03/19 00:21:51;;;;;;;1999.90;999.90;;;5.10;99.90;;;;;;5032831;28;20172;-69
2021/03/19 00:24:17;;;;;;;1999.90;999.90;;;5.10;99.90;;;;;;5032552;28;20657;-68
2021/03/19 00:26:43;;;;;;;1999.90;999.90;;;5.10;99.90;;;;;;5032349;28;20175;-69
2021/03/19 00:29:09;;;;;;;1999.90;999.90;;;5.10;99.90;;;;;;5032630;28;20165;-69
2021/03/19 00:31:35;;;;;;;1999.90;999.90;;;5.10;99.90;;;;;;5032501;28;20167;-69
2021/03/19 00:34:00;;;;;;;1999.90;999.90;;;5.10;99.90;;;;;;5032312;28;20426;-69
2021/03/19 00:36:26;;;;;;;1999.90;999.90;;;5.00;99.90;;;;;;5032180;28;20164;-69
2021/03/19 00:38:51;;;;;;;1999.90;999.90;;;5.00;99.90;;;;;;5032444;28;20173;-69
2021/03/19 00:41:19;;;;;;;1999.90;999.90;;;5.00;99.90;;;;;;5032360;28;20251;-69
2021/03/19 00:43:45;;;;;;;1999.90;999.90;;;5.00;99.90;;;;;;5032355;28;20167;-70
2021/03/19 00:46:11;;;;;;;1999.90;999.90;;;4.90;99.90;;;;;;5032174;28;20536;-70
2021/03/19 00:48:36;;;;;;;1999.90;999.90;;;4.90;99.90;;;;;;5032570;28;20255;-70
2021/03/19 00:51:02;;;;;;;1999.90;999.90;;;4.90;99.90;;;;;;5032628;28;20165;-70
2021/03/19 00:53:27;;;;;;;1999.90;999.90;;;4.80;99.90;;;;;;5032398;28;20880;-70
2021/03/19 00:55:55;;;;;;;1999.90;999.90;;;4.90;99.90;;;;;;5031723;28;20246;-68
2021/03/19 00:58:21;;;;;;;1999.90;999.90;;;4.80;99.90;;;;;;5032182;28;20160;-69
2021/03/19 01:00:47;;;;;;;1999.90;999.90;;;4.80;99.90;;;;;;5031458;28;20403;-69
2021/03/19 01:03:13;;;;;;;1999.90;999.90;;;4.80;99.90;;;;;;5032249;28;20192;-70
2021/03/19 01:05:43;;;;;;;1999.90;999.90;;;4.70;99.90;;;;;;5032144;28;20999;-70
2021/03/19 01:08:10;;;;;;;1999.90;999.90;;;4.70;99.90;;;;;;5032114;28;20176;-70
2021/03/19 01:10:40;;;;;;;1999.90;999.90;;;4.70;99.90;;;;;;5032616;28;20192;-71
2021/03/19 01:13:06;;;;;;;1999.90;999.90;;;4.60;99.90;;;;;;5032432;28;20234;-69
2021/03/19 01:15:32;;;;;;;1999.90;999.90;;;4.50;99.90;;;;;;5032290;28;20199;-70
2021/03/19 01:17:58;;;;;;;1999.90;999.90;;;4.50;99.90;;;;;;5033248;28;20176;-71
2021/03/19 01:20:26;;;;;;;1999.90;999.90;;;4.50;99.90;;;;;;5032199;28;20419;-70
2021/03/19 01:22:52;;;;;;;1999.90;999.90;;;4.60;99.90;;;;;;5032841;28;20263;-70
2021/03/19 01:25:20;;;;;;;1999.90;999.90;;;4.60;99.90;;;;;;5031359;28;20290;-69
2021/03/19 01:27:46;;;;;;;1999.90;999.90;;;4.60;99.90;;;;;;5031816;28;20168;-70
2021/03/19 01:30:17;;;;;;;1999.90;999.90;;;4.60;99.90;;;;;;5031820;28;20255;-70
2021/03/19 01:32:44;;;;;;;1999.90;999.90;;;4.60;99.90;;;;;;5031864;28;20168;-70
2021/03/19 01:35:11;;;;;;;1999.90;999.90;;;4.50;99.90;;;;;;5030181;28;20215;-70
2021/03/19 01:37:37;;;;;;;1999.90;999.90;;;4.40;99.90;;;;;;5031816;28;20164;-70
2021/03/19 01:40:08;;;;;;;1999.90;999.90;;;4.40;99.90;;;;;;5031726;28;20204;-70
2021/03/19 01:42:35;;;;;;;1999.90;999.90;;;4.30;99.90;;;;;;5031968;28;20175;-70
2021/03/19 01:45:07;;;;;;;1999.90;999.90;;;4.30;99.90;;;;;;5031503;28;20191;-70
2021/03/19 01:48:10;;;;;;;1999.90;999.90;;;4.20;99.90;;;;;;5031774;28;20210;-69
2021/03/19 01:51:13;;;;;;;1999.90;999.90;;;4.20;99.90;;;;;;5031593;28;20175;-69
2021/03/19 01:54:16;;;;;;;1999.90;999.90;;;4.10;99.90;;;;;;5031451;28;20196;-69
2021/03/19 01:57:19;;;;;;;1999.90;999.90;;;4.00;99.90;;;;;;5031268;28;20225;-70
2021/03/19 02:00:22;;;;;;;1999.90;999.90;;;4.00;99.90;;;;;;5031555;28;20183;-69
2021/03/19 02:03:25;;;;;;;1999.90;999.90;;;3.90;99.90;;;;;;5031533;28;20164;-70
2021/03/19 02:06:28;;;;;;;1999.90;999.90;;;3.80;99.90;;;;;;5031439;28;20258;-70
2021/03/19 02:09:31;;;;;;;1999.90;999.90;;;3.80;99.90;;;;;;5031571;28;20796;-70
2021/03/19 02:12:34;;;;;;;1999.90;999.90;;;3.70;99.90;;;;;;5034294;28;20653;-70
2021/03/19 02:15:37;;;;;;;1999.90;999.90;;;3.70;99.90;;;;;;5034848;28;20206;-68
2021/03/19 02:18:40;;;;;;;1999.90;999.90;;;3.50;99.90;;;;;;5035044;28;20582;-69
2021/03/19 02:21:43;;;;;;;1999.90;999.90;;;3.50;99.90;;;;;;5034976;28;20171;-69
2021/03/19 02:24:46;;;;;;;1999.90;999.90;;;3.50;99.90;;;;;;5034743;28;20680;-69
2021/03/19 02:27:49;;;;;;;1999.90;999.90;;;3.50;99.90;;;;;;5034854;28;20512;-68
2021/03/19 02:30:52;;;;;;;1999.90;999.90;;;3.50;99.90;;;;;;5035617;28;20641;-71
2021/03/19 02:33:18;;;;;;;1999.90;999.90;;;3.40;99.90;;;;;;5035172;28;20255;-69
2021/03/19 02:35:55;;;;;;;1999.90;999.90;;;3.40;99.90;;;;;;5034425;28;20302;-68
2021/03/19 02:38:22;;;;;;;1999.90;999.90;;;3.30;99.90;;;;;;5034846;28;20207;-70
2021/03/19 02:40:48;;;;;;;1999.90;999.90;;;3.20;99.90;;;;;;5034791;28;20180;-70
2021/03/19 02:43:15;;;;;;;1999.90;999.90;;;3.30;99.90;;;;;;5034601;28;20511;-68
2021/03/19 02:45:41;;;;;;;1999.90;999.90;;;3.30;99.90;;;;;;5034253;28;20636;-69
2021/03/19 02:48:09;;;;;;;1999.90;999.90;;;3.30;99.90;;;;;;5034723;28;20552;-70
2021/03/19 02:50:34;;;;;;;1999.90;999.90;;;3.30;99.90;;;;;;5034512;28;20176;-69
2021/03/19 02:53:00;;;;;;;1999.90;999.90;;;3.30;99.90;;;;;;5034598;28;20169;-70
2021/03/19 02:55:26;;;;;;;1999.90;999.90;;;3.30;99.90;;;;;;5033967;28;20204;-69
2021/03/19 02:57:51;;;;;;;1999.90;999.90;;;3.30;99.90;;;;;;5034267;28;20542;-69
2021/03/19 03:00:21;;;;;;;1999.90;999.90;;;3.20;99.90;;;;;;5034366;28;20407;-69
2021/03/19 03:02:47;;;;;;;1999.90;999.90;;;3.30;99.90;;;;;;5034290;28;20540;-69
2021/03/19 03:05:13;;;;;;;1999.90;999.90;;;3.30;99.90;;;;;;5033832;28;20201;-68
2021/03/19 03:07:39;;;;;;;1999.90;999.90;;;3.20;99.90;;;;;;5034111;28;20184;-70
2021/03/19 03:10:07;;;;;;;1999.90;999.90;;;3.10;99.90;;;;;;5034307;28;20525;-70
2021/03/19 03:12:33;;;;;;;1999.90;999.90;;;3.20;99.90;;;;;;5034282;28;20160;-70
2021/03/19 03:14:58;;;;;;;1999.90;999.90;;;3.20;99.90;;;;;;5033710;28;20210;-69
2021/03/19 03:17:24;;;;;;;1999.90;999.90;;;3.20;99.90;;;;;;5034063;28;20536;-69
2021/03/19 03:19:50;;;;;;;1999.90;999.90;;;3.20;99.90;;;;;;5033932;28;20664;-69
2021/03/19 03:22:15;;;;;;;1999.90;999.90;;;3.10;99.90;;;;;;5033446;28;20203;-71
2021/03/19 03:24:41;;;;;;;1999.90;999.90;;;3.10;99.90;;;;;;5033804;28;20188;-70
2021/03/19 03:27:08;;;;;;;1999.90;999.90;;;3.00;99.90;;;;;;5034009;28;20168;-70
2021/03/19 03:29:34;;;;;;;1999.90;999.90;;;3.00;99.90;;;;;;5033848;28;20191;-69
2021/03/19 03:32:00;;;;;;;1999.90;999.90;;;3.00;99.90;;;;;;5033645;28;20613;-69
2021/03/19 03:34:25;;;;;;;1999.90;999.90;;;2.90;99.90;;;;;;5034001;28;20228;-70
2021/03/19 03:36:52;;;;;;;1999.90;999.90;;;2.90;99.90;;;;;;5033560;28;20225;-70
2021/03/19 03:39:29;;;;;;;1999.90;999.90;;;2.90;99.90;;;;;;5033858;28;20169;-70
2021/03/19 03:41:56;;;;;;;1999.90;999.90;;;2.80;99.90;;;;;;5033782;28;20176;-70
2021/03/19 03:44:22;;;;;;;1999.90;999.90;;;2.80;99.90;;;;;;5033926;28;20554;-70
2021/03/19 03:46:48;;;;;;;1999.90;999.90;;;2.80;99.90;;;;;;5033320;28;20176;-70
2021/03/19 03:49:16;;;;;;;1999.90;999.90;;;2.80;99.90;;;;;;5033599;28;20192;-70
2021/03/19 03:51:43;;;;;;;1999.90;999.90;;;2.80;99.90;;;;;;5033598;28;20403;-70
2021/03/19 03:54:09;;;;;;;1999.90;999.90;;;2.80;99.90;;;;;;5033123;28;20208;-69
2021/03/19 03:56:35;;;;;;;1999.90;999.90;;;2.80;99.90;;;;;;5033018;28;20168;-70
2021/03/19 03:59:01;;;;;;;1999.90;999.90;;;2.80;99.90;;;;;;5033215;28;20234;-69
2021/03/19 04:01:27;;;;;;;1999.90;999.90;;;2.70;99.90;;;;;;5033147;28;20172;-69
2021/03/19 04:03:53;;;;;;;1999.90;999.90;;;2.70;99.90;;;;;;5033100;28;20438;-71
2021/03/19 04:06:19;;;;;;;1999.90;999.90;;;2.70;99.90;;;;;;5032826;28;20169;-70
2021/03/19 04:08:45;;;;;;;1999.90;999.90;;;2.70;99.90;;;;;;5033368;28;20171;-69
2021/03/19 04:11:18;;;;;;;1999.90;999.90;;;2.70;99.90;;;;;;5033170;28;20177;-68
2021/03/19 04:13:44;;;;;;;1999.90;999.90;;;2.70;99.90;;;;;;5032847;28;20180;-69
2021/03/19 04:16:11;;;;;;;1999.90;999.90;;;2.70;99.90;;;;;;5032462;28;20604;-69
2021/03/19 04:18:37;;;;;;;1999.90;999.90;;;2.60;99.90;;;;;;5032737;28;20168;-69
2021/03/19 04:21:07;;;;;;;1999.90;999.90;;;2.60;99.90;;;;;;5032015;28;20207;-70
2021/03/19 04:23:35;;;;;;;1999.90;999.90;;;2.60;99.90;;;;;;5032913;28;20171;-69
2021/03/19 04:26:00;;;;;;;1999.90;999.90;;;2.60;99.90;;;;;;5032453;28;20183;-70
2021/03/19 04:28:36;;;;;;;1999.90;999.90;;;2.60;99.90;;;;;;5032763;28;20172;-71
2021/03/19 04:31:03;;;;;;;1999.90;999.90;;;2.60;99.90;;;;;;5032845;28;20298;-71
2021/03/19 04:33:30;;;;;;;1999.90;999.90;;;2.60;99.90;;;;;;5032412;28;20176;-70
2021/03/19 04:36:16;;;;;;;1999.90;999.90;;;2.50;99.90;;;;;;5031603;28;20827;-68
2021/03/19 04:38:43;;;;;;;1999.90;999.90;;;2.50;99.90;;;;;;5032422;28;20168;-70
2021/03/19 04:41:09;;;;;;;1999.90;999.90;;;2.50;99.90;;;;;;5032398;28;20168;-69
2021/03/19 04:43:35;;;;;;;1999.90;999.90;;;2.50;99.90;;;;;;5032276;28;20218;-68
2021/03/19 04:46:01;;;;;;;1999.90;999.90;;;2.50;99.90;;;;;;5032173;28;20488;-70
2021/03/19 04:48:26;;;;;;;1999.90;999.90;;;2.50;99.90;;;;;;5032701;28;20172;-70
2021/03/19 04:50:52;;;;;;;1999.90;999.90;;;2.50;99.90;;;;;;5032302;28;20172;-69
2021/03/19 04:53:18;;;;;;;1999.90;999.90;;;2.50;99.90;;;;;;5032188;28;20179;-69
2021/03/19 04:55:43;;;;;;;1999.90;999.90;;;2.50;99.90;;;;;;5070338;23;20251;-69
2021/03/19 04:58:09;;;;;;;1999.90;999.90;;;2.60;99.90;;;;;;5032157;28;20164;-69
2021/03/19 05:00:34;;;;;;;1999.90;999.90;;;2.60;99.90;;;;;;5032187;28;20242;-69
2021/03/19 05:03:00;;;;;;;1999.90;999.90;;;2.60;99.90;;;;;;5032149;28;20168;-69
2021/03/19 05:05:31;;;;;;;1999.90;999.90;;;2.60;99.90;;;;;;5017767;28;20200;-69
2021/03/19 05:07:58;;;;;;;1999.90;999.90;;;2.60;99.90;;;;;;5012214;28;20592;-68
2021/03/19 05:10:29;;;;;;;1999.90;999.90;;;2.60;99.90;;;;;;5012311;28;20549;-68
2021/03/19 05:12:56;;;;;;;1999.90;999.90;;;2.60;99.90;;;;;;5012265;28;20181;-68
2021/03/19 05:15:24;;;;;;;1999.90;999.90;;;2.60;99.90;;;;;;5011897;28;20739;-68
2021/03/19 05:17:50;;;;;;;1999.90;999.90;;;2.60;99.90;;;;;;5012205;28;20178;-68
2021/03/19 05:20:16;;;;;;;1999.90;999.90;;;2.60;99.90;;;;;;5012112;28;20188;-68
2021/03/19 05:22:42;;;;;;;1999.90;999.90;;;2.50;99.90;;;;;;5012408;28;20642;-68
2021/03/19 05:25:15;;;;;;;1999.90;999.90;;;2.60;99.90;;;;;;5011806;28;20208;-68
2021/03/19 05:27:41;;;;;;;1999.90;999.90;;;2.50;99.90;;;;;;5012304;28;20407;-68
2021/03/19 05:30:09;;;;;;;1999.90;999.90;;;2.50;99.90;;;;;;5012111;28;20177;-68
2021/03/19 05:32:35;;;;;;;1999.90;999.90;;;2.50;99.90;;;;;;5012065;28;21047;-68
2021/03/19 05:35:01;;;;;;;1999.90;999.90;;;2.50;99.90;;;;;;5011619;28;20299;-68
2021/03/19 05:37:26;;;;;;;1999.90;999.90;;;2.50;99.90;;;;;;5012018;28;20205;-69
2021/03/19 05:39:52;;;;;;;1999.90;999.90;;;2.40;99.90;;;;;;5012068;28;20588;-68
2021/03/19 05:42:32;;;;;;;1999.90;999.90;;;2.40;99.90;;;;;;5012132;28;20177;-68
2021/03/19 05:45:03;;;;;;;1999.90;999.90;;;2.40;99.90;;;;;;5011740;28;20662;-69
2021/03/19 05:47:29;;;;;;;1999.90;999.90;;;2.40;99.90;;;;;;5015725;28;20169;-69
2021/03/19 05:49:58;;;;;;;1999.90;999.90;;;2.50;99.90;;;;;;5015938;28;20205;-69
2021/03/19 05:52:32;;;;;;;1999.90;999.90;;;2.50;99.90;;;;;;5015811;28;20260;-69
2021/03/19 05:54:57;;;;;;;1999.90;999.90;;;2.50;99.90;;;;;;5015329;28;20212;-69
2021/03/19 05:57:30;;;;;;;1999.90;999.90;;;2.50;99.90;;;;;;5015708;28;20168;-69
2021/03/19 05:59:58;;;;;;;1999.90;999.90;;;2.50;99.90;;;;;;5015628;28;20651;-69
2021/03/19 06:02:31;;;;;;;1999.90;999.90;;;2.50;99.90;;;;;;5015509;28;20189;-69
2021/03/19 06:05:18;;;;;;;1999.90;999.90;;;2.50;99.90;;;;;;5015226;28;20206;-69
2021/03/19 06:07:58;;;;;;;1999.90;999.90;;;2.50;99.90;;;;;;5015552;28;20180;-69
2021/03/19 06:10:36;;;;;;;1999.90;999.90;;;2.50;99.90;;;;;;5015803;28;20169;-69
2021/03/19 06:13:14;;;;;;;1999.90;999.90;;;2.50;99.90;;;;;;5015639;28;20184;-69
2021/03/19 06:15:44;;;;;;;1999.90;999.90;;;2.50;99.90;;;;;;5014933;28;20205;-69
2021/03/19 06:18:37;;;;;;;1999.90;999.90;;;2.50;99.90;;;;;;5015267;28;20173;-68
2021/03/19 06:21:05;;;;;;;1999.90;999.90;;;2.50;99.90;;;;;;5015271;28;20184;-69
2021/03/19 06:23:32;;;;;;;1999.90;999.90;;;2.50;99.90;;;;;;5015096;28;20226;-69
2021/03/19 06:26:01;;;;;;;1999.90;999.90;;;2.50;99.90;;;;;;5014861;28;20184;-69
2021/03/19 06:28:39;;;;;;;1999.90;999.90;;;2.60;99.90;;;;;;5015162;28;20689;-69
2021/03/19 06:31:21;;;;;;;1999.90;999.90;;;2.60;99.90;;;;;;5015100;28;20254;-69
2021/03/19 06:33:48;;;;;;;1999.90;999.90;;;2.60;99.90;;;;;;5014958;28;20545;-69
2021/03/19 06:36:16;;;;;;;1999.90;999.90;;;2.60;99.90;;;;;;5014739;28;20228;-68
2021/03/19 06:38:48;;;;;;;1999.90;999.90;;;2.60;99.90;;;;;;5014991;28;20203;-69
2021/03/19 06:41:20;;;;;;;1999.90;999.90;;;2.70;99.90;;;;;;5014896;28;20180;-69
2021/03/19 06:43:46;;;;;;;1999.90;999.90;;;2.70;99.90;;;;;;5014886;28;20180;-69
2021/03/19 06:46:14;;;;;;;1999.90;999.90;;;2.70;99.90;;;;;;5014494;28;20180;-69
2021/03/19 06:49:07;;;;;;;1999.90;999.90;;;2.70;99.90;;;;;;5014833;28;20544;-69
2021/03/19 06:51:42;;;;;;;1999.90;999.90;;;2.80;99.90;;;;;;5014384;28;20188;-69
2021/03/19 06:54:11;;;;;;;1999.90;999.90;;;2.90;99.90;;;;;;5014444;28;20223;-69
2021/03/19 06:56:39;;;;;;;1999.90;999.90;;;2.90;99.90;;;;;;5014183;28;20719;-69
2021/03/19 06:59:23;;;;;;;1999.90;999.90;;;3.00;99.90;;;;;;5013893;28;20173;-68
2021/03/19 07:01:49;;;;;;;1999.90;999.90;;;3.10;99.90;;;;;;5014321;28;20653;-69
2021/03/19 07:04:42;;;;;;;1999.90;999.90;;;3.10;99.90;;;;;;5014393;28;20251;-69
2021/03/19 07:07:19;;;;;;;1999.90;999.90;;;3.10;99.90;;;;;;5014540;28;20171;-68
2021/03/19 07:09:50;;;;;;;1999.90;999.90;;;3.20;99.90;;;;;;5014534;28;20652;-68
2021/03/19 07:12:34;;;;;;;1999.90;999.90;;;3.20;99.90;;;;;;5014355;28;20165;-68
2021/03/19 07:15:30;;;;;;;1999.90;999.90;;;3.20;99.90;;;;;;5013900;28;20204;-69
2021/03/19 07:18:08;;;;;;;1999.90;999.90;;;3.40;99.90;;;;;;5014254;28;20722;-69
2021/03/19 07:21:01;;;;;;;1999.90;999.90;;;3.40;99.90;;;;;;5014245;28;20168;-68
2021/03/19 07:23:37;;;;;;;1999.90;999.90;;;3.50;99.90;;;;;;5014108;28;20240;-69
2021/03/19 07:26:11;;;;;;;1999.90;999.90;;;3.50;99.90;;;;;;5013759;28;20201;-69
2021/03/19 07:28:53;;;;;;;1999.90;999.90;;;3.50;99.90;;;;;;5014121;28;20178;-69
2021/03/19 07:31:41;;;;;;;1999.90;999.90;;;3.50;99.90;;;;;;5013872;28;20247;-69
2021/03/19 07:34:37;;;;;;;1999.90;999.90;;;3.50;99.90;;;;;;5014019;28;20287;-68
2021/03/19 07:37:18;;;;;;;1999.90;999.90;;;3.60;99.90;;;;;;5006129;28;20728;-69
2021/03/19 07:39:53;;;;;;;1999.90;999.90;;;3.70;99.90;;;;;;5013697;28;20185;-69
2021/03/19 07:42:21;;;;;;;1999.90;999.90;;;3.80;99.90;;;;;;5013972;28;20177;-68
2021/03/19 07:45:09;;;;;;;1999.90;999.90;;;3.90;99.90;;;;;;5013392;28;20235;-69
2021/03/19 07:47:52;;;;;;;1999.90;999.90;;;3.80;99.90;;;;;;5013576;28;20161;-69
2021/03/19 07:50:36;;;;;;;1999.90;999.90;;;3.70;99.90;;;;;;5013612;28;20658;-69
2021/03/19 07:53:24;;;;;;;1999.90;999.90;;;3.70;99.90;;;;;;5013581;28;20165;-69
2021/03/19 07:56:02;;;;;;;1999.90;999.90;;;3.60;99.90;;;;;;5007398;28;20220;-69
2021/03/19 07:58:38;;;;;;;1999.90;999.90;;;3.60;99.90;;;;;;5013359;28;20252;-68
2021/03/19 08:01:22;;;;;;;1999.90;999.90;;;3.60;99.90;;;;;;5013420;28;20663;-69
2021/03/19 08:03:56;;;;;;;1999.90;999.90;;;3.70;99.90;;;;;;5013278;28;20180;-69
2021/03/19 08:06:31;;;;;;;1999.90;999.90;;;3.60;99.90;;;;;;5013080;28;20547;-69
2021/03/19 08:09:23;;;;;;;1999.90;999.90;;;3.50;99.90;;;;;;5013096;28;20538;-69
2021/03/19 08:11:59;;;;;;;1999.90;999.90;;;3.60;99.90;;;;;;5005786;28;20209;-69
2021/03/19 08:15:04;;;;;;;1999.90;999.90;;;3.70;99.90;;;;;;5012969;28;20658;-69
2021/03/19 08:17:46;;;;;;;1999.90;999.90;;;3.70;99.90;;;;;;5011768;28;20183;-69
2021/03/19 08:20:17;;;;;;;1999.90;999.90;;;3.80;99.90;;;;;;5013076;28;20173;-69
2021/03/19 08:22:52;;;;;;;1999.90;999.90;;;3.90;99.90;;;;;;5010370;28;20166;-68
2021/03/19 08:25:23;;;;;;;1999.90;999.90;;;4.00;99.90;;;;;;5010544;28;20200;-68
2021/03/19 08:27:59;;;;;;;1999.90;999.90;;;4.10;99.90;;;;;;5010895;28;20233;-68
2021/03/19 08:30:53;;;;;;;1999.90;999.90;;;4.20;99.90;;;;;;5010997;28;20540;-68
2021/03/19 08:33:25;;;;;;;1999.90;999.90;;;4.30;99.90;;;;;;5010230;28;20549;-68
2021/03/19 08:36:20;;;;;;;1999.90;999.90;;;4.30;99.90;;;;;;5010677;28;20247;-69
2021/03/19 08:38:51;;;;;;;1999.90;999.90;;;4.40;99.90;;;;;;5010765;28;20181;-69
2021/03/19 08:41:34;;;;;;;1999.90;999.90;;;4.50;99.90;;;;;;5011443;28;20199;-69
2021/03/19 08:44:02;;;;;;;1999.90;999.90;;;4.50;99.90;;;;;;5010944;28;20256;-68
2021/03/19 08:46:50;;;;;;;1999.90;999.90;;;4.60;99.90;;;;;;5009994;28;20208;-69
2021/03/19 08:49:24;;;;;;;1999.90;999.90;;;4.60;99.90;;;;;;5011195;28;20538;-69
2021/03/19 08:51:53;;;;;;;1999.90;999.90;;;4.60;99.90;;;;;;5010988;28;20173;-69
2021/03/19 08:54:26;;;;;;;1999.90;999.90;;;4.70;99.90;;;;;;5010150;28;20236;-69
2021/03/19 08:57:06;;;;;;;1999.90;999.90;;;4.80;99.90;;;;;;5010466;28;20204;-69
2021/03/19 08:59:34;;;;;;;1999.90;999.90;;;4.80;99.90;;;;;;5011050;28;20181;-68
2021/03/19 09:02:01;;;;;;;1999.90;999.90;;;5.00;99.90;;;;;;5010754;28;20717;-69
2021/03/19 09:05:00;;;;;;;1999.90;999.90;;;5.10;99.90;;;;;;5010605;28;20422;-69
2021/03/19 09:07:39;;;;;;;1999.90;999.90;;;5.20;99.90;;;;;;5010364;28;20400;-69
2021/03/19 09:10:04;;;;;;;1999.90;999.90;;;5.20;99.90;;;;;;5010772;28;20406;-69
2021/03/19 09:12:32;;;;;;;1999.90;999.90;;;5.30;99.90;;;;;;5010749;28;20169;-69
2021/03/19 09:15:16;;;;;;;1999.90;999.90;;;5.40;99.90;;;;;;5009559;28;20223;-68
2021/03/19 09:17:48;;;;;;;1999.90;999.90;;;5.60;99.90;;;;;;5010610;28;20562;-69
2021/03/19 09:20:29;;;;;;;1999.90;999.90;;;5.60;99.90;;;;;;5010314;28;20498;-69
2021/03/19 09:23:07;;;;;;;1999.90;999.90;;;5.60;99.90;;;;;;5010232;28;20439;-69
2021/03/19 09:25:40;;;;;;;1999.90;999.90;;;5.70;99.90;;;;;;5007859;28;21295;-69
2021/03/19 09:28:58;;;;;;;1999.90;999.90;;;5.80;99.90;;;;;;5010159;28;20188;-71
2021/03/19 09:31:27;;;;;;;1999.90;999.90;;;5.80;99.90;;;;;;4991959;28;20416;-71
2021/03/19 09:33:57;;;;;;;1999.90;999.90;;;5.90;99.90;;;;;;5009905;28;20408;-70
2021/03/19 09:36:56;;;;;;;1999.90;999.90;;;6.00;99.90;;;;;;5009602;28;20582;-69
2021/03/19 09:39:53;;;;;;;1999.90;999.90;;;6.20;99.90;;;;;;5010380;28;20408;-69
2021/03/19 09:42:19;;;;;;;1999.90;999.90;;;6.50;99.90;;;;;;5010238;28;20968;-70
2021/03/19 09:44:49;;;;;;;1999.90;999.90;;;6.50;99.90;;;;;;5009096;28;20526;-69
2021/03/19 09:47:16;;;;;;;1999.90;999.90;;;6.50;99.90;;;;;;5010104;28;20193;-69
2021/03/19 09:49:42;;;;;;;1999.90;999.90;;;6.60;99.90;;;;;;5010129;28;20415;-69
2021/03/19 09:52:13;;;;;;;1999.90;999.90;;;6.60;99.90;;;;;;5009516;28;20544;-70
2021/03/19 09:54:39;;;;;;;1999.90;999.90;;;6.80;99.90;;;;;;5009376;28;21016;-69
2021/03/19 09:57:13;;;;;;;1999.90;999.90;;;6.80;99.90;;;;;;5009679;28;20914;-69
2021/03/19 09:59:43;;;;;;;1999.90;999.90;;;6.80;99.90;;;;;;5009381;28;20404;-69
2021/03/19 10:02:34;;;;;;;1999.90;999.90;;;7.00;99.90;;;;;;5010212;28;20411;-70
2021/03/19 10:05:34;;;;;;;1999.90;999.90;;;7.30;99.90;;;;;;5009301;28;20478;-69
2021/03/19 10:08:00;;;;;;;1999.90;999.90;;;7.30;99.90;;;;;;5009646;28;20442;-69
2021/03/19 10:10:32;;;;;;;1999.90;999.90;;;7.30;99.90;;;;;;5009925;28;20415;-69
2021/03/19 10:13:16;;;;;;;1999.90;999.90;;;7.60;99.90;;;;;;5009868;28;21076;-69
2021/03/19 10:15:44;;;;;;;1999.90;999.90;;;7.60;99.90;;;;;;5008715;28;20498;-69
2021/03/19 10:18:26;;;;;;;1999.90;999.90;;;7.80;99.90;;;;;;5009821;28;20396;-69
2021/03/19 10:21:03;;;;;;;1999.90;999.90;;;7.90;99.90;;;;;;5010064;28;20764;-69
2021/03/19 10:23:35;;;;;;;1999.90;999.90;;;8.00;99.90;;;;;;5009658;28;20819;-69
2021/03/19 10:26:20;;;;;;;1999.90;999.90;;;8.00;99.90;;;;;;5009148;28;20838;-69
2021/03/19 10:29:02;;;;;;;1999.90;999.90;;;8.00;99.90;;;;;;5009131;28;20412;-69
2021/03/19 10:31:28;;;;;;;1999.90;999.90;;;8.20;99.90;;;;;;5009794;28;20400;-69
2021/03/19 10:34:09;;;;;;;1999.90;999.90;;;8.40;99.90;;;;;;5011925;28;20447;-69
2021/03/19 10:36:41;;;;;;;1999.90;999.90;;;8.40;99.90;;;;;;5012313;28;20451;-70
2021/03/19 10:39:24;;;;;;;1999.90;999.90;;;8.60;99.90;;;;;;5013011;28;20491;-69
2021/03/19 10:41:55;;;;;;;1999.90;999.90;;;8.40;99.90;;;;;;5013149;28;20415;-71
2021/03/19 10:44:24;;;;;;;1999.90;999.90;;;8.50;99.90;;;;;;5012372;28;20420;-72
2021/03/19 10:47:19;;;;;;;1999.90;999.90;;;8.70;99.90;;;;;;5012492;28;20863;-71
2021/03/19 10:50:09;;;;;;;1999.90;999.90;;;8.80;99.90;;;;;;5012940;28;20404;-72
2021/03/19 10:52:40;;;;;;;1999.90;999.90;;;8.70;99.90;;;;;;5011942;28;20416;-69
2021/03/19 10:55:23;;;;;;;1999.90;999.90;;;8.80;99.90;;;;;;5011942;28;20468;-69
2021/03/19 10:57:55;;;;;;;1999.90;999.90;;;9.00;99.90;;;;;;5012652;28;20448;-69
2021/03/19 11:00:43;;;;;;;1999.90;999.90;;;8.90;99.90;;;;;;5012446;28;20412;-70
2021/03/19 11:03:38;;;;;;;1999.90;999.90;;;8.90;99.90;;;;;;5012891;28;20772;-70
2021/03/19 11:06:07;;;;;;;1999.90;999.90;;;9.10;99.90;;;;;;5011528;28;20438;-70
2021/03/19 11:08:33;;;;;;;1999.90;999.90;;;9.00;99.90;;;;;;5012724;28;20416;-68
2021/03/19 11:10:59;;;;;;;1999.90;999.90;;;9.10;99.90;;;;;;5012423;28;20441;-70
2021/03/19 11:13:37;;;;;;;1999.90;999.90;;;9.30;99.90;;;;;;5012087;28;20185;-70
2021/03/19 11:16:25;;;;;;;1999.90;999.90;;;9.40;99.90;;;;;;5011930;28;20463;-70
2021/03/19 11:19:06;;;;;;;1999.90;999.90;;;9.50;99.90;;;;;;5009214;28;20893;-70
2021/03/19 11:21:32;;;;;;;1999.90;999.90;;;9.50;99.90;;;;;;5009652;28;20422;-71
2021/03/19 11:24:31;;;;;;;1999.90;999.90;;;9.60;99.90;;;;;;5008378;28;21993;-70
2021/03/19 11:27:16;;;;;;;1999.90;999.90;;;9.60;99.90;;;;;;5000046;28;20443;-69
2021/03/19 11:29:42;;;;;;;1999.90;999.90;;;9.20;99.90;;;;;;5000025;28;20420;-70
2021/03/19 11:32:11;;;;;;;1999.90;999.90;;;9.30;99.90;;;;;;5008332;28;20416;-70
2021/03/19 11:34:49;;;;;;;1999.90;999.90;;;9.40;99.90;;;;;;5008072;28;21055;-70
2021/03/19 11:37:21;;;;;;;1999.90;999.90;;;9.50;99.90;;;;;;5007882;28;20422;-71
2021/03/19 11:39:53;;;;;;;1999.90;999.90;;;9.70;99.90;;;;;;5008342;28;20429;-70
2021/03/19 11:42:22;;;;;;;1999.90;999.90;;;10.00;99.90;;;;;;5008659;28;20414;-69
2021/03/19 11:44:50;;;;;;;1999.90;999.90;;;10.10;99.90;;;;;;5007192;28;20442;-70
2021/03/19 11:47:26;;;;;;;1999.90;999.90;;;10.50;99.90;;;;;;5008385;28;20427;-70
2021/03/19 11:50:11;;;;;;;1999.90;999.90;;;11.00;99.90;;;;;;5007275;28;20855;-70
2021/03/19 11:52:37;;;;;;;1999.90;999.90;;;11.50;99.90;;;;;;5007809;28;20777;-70
2021/03/19 11:55:03;;;;;;;1999.90;999.90;;;12.10;99.90;;;;;;5007279;28;20473;-70
2021/03/19 11:57:29;;;;;;;1999.90;999.90;;;12.80;99.90;;;;;;5007994;28;20625;-70
2021/03/19 11:59:54;;;;;;;1999.90;999.90;;;13.00;98.40;;;;;;5007675;28;20510;-70
2021/03/19 12:02:34;;;;;;;1999.90;999.90;;;12.50;94.80;;;;;;5007653;28;20173;-70
2021/03/19 12:05:00;;;;;;;1999.90;999.90;;;12.00;95.70;;;;;;5006792;28;20720;-70
2021/03/19 12:07:26;;;;;;;1999.90;999.90;;;11.60;98.80;;;;;;5008289;28;20414;-69
2021/03/19 12:09:52;;;;;;;1999.90;999.90;;;12.30;99.90;;;;;;5007429;28;20750;-70
2021/03/19 12:12:23;;;;;;;1999.90;999.90;;;13.30;99.90;;;;;;5007236;28;20423;-71
2021/03/19 12:14:49;;;;;;;1999.90;999.90;;;13.90;94.20;;;;;;5007381;28;20213;-70
2021/03/19 12:17:15;;;;;;;1999.90;999.90;;;14.40;91.00;;;;;;5007661;28;20474;-70
2021/03/19 12:19:41;;;;;;;1999.90;999.90;;;15.00;90.30;;;;;;5006970;28;20739;-71
2021/03/19 12:22:07;;;;;;;1999.90;999.90;;;15.70;82.00;;;;;;5007628;28;20418;-70
2021/03/19 12:24:33;;;;;;;1999.90;999.90;;;15.00;71.30;;;;;;5008006;28;20488;-70
2021/03/19 12:26:59;;;;;;;1999.90;999.90;;;14.60;78.30;;;;;;5007628;28;20201;-71
2021/03/19 12:29:25;;;;;;;1999.90;999.90;;;14.70;79.40;;;;;;5008581;28;20437;-70
2021/03/19 12:31:50;;;;;;;1999.90;999.90;;;15.20;81.00;;;;;;5007681;28;20177;-70
2021/03/19 12:34:16;;;;;;;1999.90;999.90;;;15.90;81.80;;;;;;5008252;28;20222;-71
2021/03/19 12:36:42;;;;;;;1999.90;999.90;;;16.80;77.80;;;;;;5007522;28;20207;-70
2021/03/19 12:39:07;;;;;;;1999.90;999.90;;;17.70;76.40;;;;;;5007837;28;20197;-71